Terminal Aerodrome Forecast
Issued by NWS Green Bay, WI

Home | Current Version | Previous Version | Graphics & Text | Print | Product List | Glossary On
Versions: 1 2 3 4 5 6 7 8 9 10 11 12 13 14 15 16 17 18 19 20 21 22 23 24 25 26 27 28 29 30 31 32 33
000
FTUS43 KGRB 280028 AAA
TAFGRB
TAF AMD
KGRB 280028Z 2800/2824 11008KT 4SM SHRA SCT006 OVC040
      TEMPO 2800/2803 2SM -SHRA BR BKN006
     FM280300 14006KT P6SM VCSH OVC025
     FM280400 15005KT P6SM VCSH OVC020
     FM280600 15005KT 3SM BR OVC020
     FM281200 17007KT 3SM BR OVC008
     FM281400 18009KT 3SM BR OVC003
     FM281500 18010KT P6SM VCSH OVC003
     FM282100 18012KT P6SM VCSH BKN040=

USA.gov is the U.S. government's official web portal to all federal, state and local government web resources and services.